sensor_id;sensor_type;location;lat;lon;timestamp;P1;durP1;ratioP1;P2;durP2;ratioP2
6791;SDS011;3433;48.730;9.108;2023-04-06T17:17:44;14.17;;;10.33;;
6791;SDS011;3433;48.730;9.108;2023-04-06T17:20:11;18.00;;;10.70;;
6791;SDS011;3433;48.730;9.108;2023-04-06T17:22:38;15.23;;;9.57;;
6791;SDS011;3433;48.730;9.108;2023-04-06T17:25:06;15.90;;;10.03;;
6791;SDS011;3433;48.730;9.108;2023-04-06T17:27:34;13.63;;;9.50;;
6791;SDS011;3433;48.730;9.108;2023-04-06T17:30:01;10.37;;;7.73;;
6791;SDS011;3433;48.730;9.108;2023-04-06T17:32:31;10.80;;;7.70;;
6791;SDS011;3433;48.730;9.108;2023-04-06T17:35:00;13.70;;;7.70;;
6791;SDS011;3433;48.730;9.108;2023-04-06T17:37:27;13.73;;;7.70;;
6791;SDS011;3433;48.730;9.108;2023-04-06T17:39:57;8.70;;;6.90;;
6791;SDS011;3433;48.730;9.108;2023-04-06T17:42:24;9.73;;;7.23;;
6791;SDS011;3433;48.730;9.108;2023-04-06T17:44:51;9.40;;;6.20;;
6791;SDS011;3433;48.730;9.108;2023-04-06T17:47:18;11.30;;;7.10;;
6791;SDS011;3433;48.730;9.108;2023-04-06T17:49:45;14.10;;;7.73;;
6791;SDS011;3433;48.730;9.108;2023-04-06T17:52:14;9.43;;;6.80;;
6791;SDS011;3433;48.730;9.108;2023-04-06T17:54:41;10.83;;;6.40;;
6791;SDS011;3433;48.730;9.108;2023-04-06T17:57:08;10.37;;;6.60;;
6791;SDS011;3433;48.730;9.108;2023-04-06T17:59:35;9.37;;;6.57;;
6791;SDS011;3433;48.730;9.108;2023-04-06T18:02:02;8.60;;;6.60;;
6791;SDS011;3433;48.730;9.108;2023-04-06T18:04:30;9.90;;;6.93;;
6791;SDS011;3433;48.730;9.108;2023-04-06T18:06:56;10.67;;;6.63;;
6791;SDS011;3433;48.730;9.108;2023-04-06T18:09:25;8.37;;;6.00;;
6791;SDS011;3433;48.730;9.108;2023-04-06T18:11:51;10.07;;;6.30;;
6791;SDS011;3433;48.730;9.108;2023-04-06T18:14:18;10.53;;;6.80;;
6791;SDS011;3433;48.730;9.108;2023-04-06T18:16:45;10.37;;;6.40;;
6791;SDS011;3433;48.730;9.108;2023-04-06T18:19:12;11.33;;;6.43;;
6791;SDS011;3433;48.730;9.108;2023-04-06T18:21:39;10.57;;;6.30;;
6791;SDS011;3433;48.730;9.108;2023-04-06T18:24:06;9.87;;;6.70;;
6791;SDS011;3433;48.730;9.108;2023-04-06T18:26:35;11.70;;;6.70;;
6791;SDS011;3433;48.730;9.108;2023-04-06T18:29:01;17.53;;;7.23;;
6791;SDS011;3433;48.730;9.108;2023-04-06T18:31:29;11.60;;;8.20;;
6791;SDS011;3433;48.730;9.108;2023-04-06T18:33:58;10.60;;;6.50;;
6791;SDS011;3433;48.730;9.108;2023-04-06T18:36:25;9.17;;;7.20;;
6791;SDS011;3433;48.730;9.108;2023-04-06T18:38:52;9.77;;;6.73;;
6791;SDS011;3433;48.730;9.108;2023-04-06T18:41:19;7.70;;;6.50;;
6791;SDS011;3433;48.730;9.108;2023-04-06T18:43:48;11.23;;;7.03;;
6791;SDS011;3433;48.730;9.108;2023-04-06T18:46:15;9.23;;;6.87;;
6791;SDS011;3433;48.730;9.108;2023-04-06T18:48:44;11.53;;;6.73;;
6791;SDS011;3433;48.730;9.108;2023-04-06T18:51:11;12.30;;;6.50;;
6791;SDS011;3433;48.730;9.108;2023-04-06T18:53:38;10.17;;;6.20;;
6791;SDS011;3433;48.730;9.108;2023-04-06T18:56:11;14.13;;;6.60;;
6791;SDS011;3433;48.730;9.108;2023-04-06T18:58:39;9.07;;;6.17;;
6791;SDS011;3433;48.730;9.108;2023-04-06T19:01:08;9.30;;;5.93;;
6791;SDS011;3433;48.730;9.108;2023-04-06T19:03:35;9.30;;;6.23;;
6791;SDS011;3433;48.730;9.108;2023-04-06T19:06:03;8.90;;;5.90;;
6791;SDS011;3433;48.730;9.108;2023-04-06T19:08:31;10.20;;;5.50;;
6791;SDS011;3433;48.730;9.108;2023-04-06T19:11:03;9.07;;;4.70;;
6791;SDS011;3433;48.730;9.108;2023-04-06T19:13:31;5.40;;;4.07;;
6791;SDS011;3433;48.730;9.108;2023-04-06T19:15:58;6.33;;;4.60;;
6791;SDS011;3433;48.730;9.108;2023-04-06T19:18:26;7.53;;;4.50;;
6791;SDS011;3433;48.730;9.108;2023-04-06T19:20:53;6.10;;;3.97;;
6791;SDS011;3433;48.730;9.108;2023-04-06T19:23:20;6.67;;;2.97;;
6791;SDS011;3433;48.730;9.108;2023-04-06T19:25:47;5.33;;;2.90;;
6791;SDS011;3433;48.730;9.108;2023-04-06T19:28:15;4.67;;;3.37;;
6791;SDS011;3433;48.730;9.108;2023-04-06T19:30:42;3.10;;;2.70;;
6791;SDS011;3433;48.730;9.108;2023-04-06T19:33:09;4.80;;;2.90;;
6791;SDS011;3433;48.730;9.108;2023-04-06T19:35:38;3.53;;;2.40;;
6791;SDS011;3433;48.730;9.108;2023-04-06T19:38:05;2.50;;;2.30;;
6791;SDS011;3433;48.730;9.108;2023-04-06T19:40:32;3.03;;;2.33;;
6791;SDS011;3433;48.730;9.108;2023-04-06T19:42:59;6.00;;;2.87;;
6791;SDS011;3433;48.730;9.108;2023-04-06T19:45:25;4.90;;;3.20;;
6791;SDS011;3433;48.730;9.108;2023-04-06T19:47:53;2.73;;;2.37;;
6791;SDS011;3433;48.730;9.108;2023-04-06T19:50:20;3.17;;;2.70;;
6791;SDS011;3433;48.730;9.108;2023-04-06T19:52:49;3.47;;;2.60;;
6791;SDS011;3433;48.730;9.108;2023-04-06T19:55:17;2.97;;;2.60;;
6791;SDS011;3433;48.730;9.108;2023-04-06T19:57:44;3.33;;;2.80;;
6791;SDS011;3433;48.730;9.108;2023-04-06T20:00:11;3.87;;;3.30;;
6791;SDS011;3433;48.730;9.108;2023-04-06T20:02:38;9.10;;;3.90;;
6791;SDS011;3433;48.730;9.108;2023-04-06T20:05:05;3.73;;;3.30;;
6791;SDS011;3433;48.730;9.108;2023-04-06T20:07:33;5.00;;;3.10;;
6791;SDS011;3433;48.730;9.108;2023-04-06T20:10:03;3.03;;;2.70;;
6791;SDS011;3433;48.730;9.108;2023-04-06T20:12:30;5.23;;;3.50;;
6791;SDS011;3433;48.730;9.108;2023-04-06T20:14:57;3.80;;;3.47;;
6791;SDS011;3433;48.730;9.108;2023-04-06T20:17:24;7.50;;;4.40;;
6791;SDS011;3433;48.730;9.108;2023-04-06T20:19:51;4.37;;;3.50;;
6791;SDS011;3433;48.730;9.108;2023-04-06T20:22:18;5.00;;;4.10;;
6791;SDS011;3433;48.730;9.108;2023-04-06T20:24:45;7.73;;;4.77;;
6791;SDS011;3433;48.730;9.108;2023-04-06T20:27:13;6.60;;;4.67;;
6791;SDS011;3433;48.730;9.108;2023-04-06T20:29:41;8.07;;;4.83;;
6791;SDS011;3433;48.730;9.108;2023-04-06T20:32:08;8.87;;;6.07;;
6791;SDS011;3433;48.730;9.108;2023-04-06T20:34:35;6.20;;;4.63;;
6791;SDS011;3433;48.730;9.108;2023-04-06T20:37:02;8.10;;;5.40;;
6791;SDS011;3433;48.730;9.108;2023-04-06T20:39:29;8.93;;;6.00;;
6791;SDS011;3433;48.730;9.108;2023-04-06T20:41:56;12.30;;;6.93;;
6791;SDS011;3433;48.730;9.108;2023-04-06T20:44:26;9.93;;;5.43;;
6791;SDS011;3433;48.730;9.108;2023-04-06T20:46:54;11.13;;;7.13;;
6791;SDS011;3433;48.730;9.108;2023-04-06T20:49:21;10.30;;;6.53;;
6791;SDS011;3433;48.730;9.108;2023-04-06T20:51:48;7.93;;;5.87;;
6791;SDS011;3433;48.730;9.108;2023-04-06T20:54:15;9.57;;;6.43;;
6791;SDS011;3433;48.730;9.108;2023-04-06T20:56:42;10.80;;;6.60;;
6791;SDS011;3433;48.730;9.108;2023-04-06T20:59:10;9.83;;;6.10;;
6791;SDS011;3433;48.730;9.108;2023-04-06T21:01:38;8.97;;;6.10;;
6791;SDS011;3433;48.730;9.108;2023-04-06T21:04:05;6.60;;;5.37;;
6791;SDS011;3433;48.730;9.108;2023-04-06T21:06:32;6.93;;;5.87;;
6791;SDS011;3433;48.730;9.108;2023-04-06T21:09:00;9.73;;;6.20;;
6791;SDS011;3433;48.730;9.108;2023-04-06T21:11:27;11.43;;;6.20;;
6791;SDS011;3433;48.730;9.108;2023-04-06T21:13:53;6.73;;;5.80;;
6791;SDS011;3433;48.730;9.108;2023-04-06T21:16:20;9.60;;;6.30;;
6791;SDS011;3433;48.730;9.108;2023-04-06T21:18:49;9.03;;;6.63;;
6791;SDS011;3433;48.730;9.108;2023-04-06T21:21:15;8.00;;;6.00;;
6791;SDS011;3433;48.730;9.108;2023-04-06T21:23:42;9.20;;;6.10;;
6791;SDS011;3433;48.730;9.108;2023-04-06T21:26:10;9.20;;;6.90;;
6791;SDS011;3433;48.730;9.108;2023-04-06T21:28:37;8.30;;;6.13;;
6791;SDS011;3433;48.730;9.108;2023-04-06T21:31:05;8.20;;;6.30;;
6791;SDS011;3433;48.730;9.108;2023-04-06T21:33:32;8.90;;;7.00;;
6791;SDS011;3433;48.730;9.108;2023-04-06T21:36:04;13.90;;;7.33;;
6791;SDS011;3433;48.730;9.108;2023-04-06T21:38:31;9.17;;;7.33;;
6791;SDS011;3433;48.730;9.108;2023-04-06T21:40:59;9.73;;;7.00;;
6791;SDS011;3433;48.730;9.108;2023-04-06T21:43:26;9.70;;;7.30;;
6791;SDS011;3433;48.730;9.108;2023-04-06T21:45:53;10.07;;;7.23;;
6791;SDS011;3433;48.730;9.108;2023-04-06T21:48:20;13.73;;;8.10;;
6791;SDS011;3433;48.730;9.108;2023-04-06T21:50:47;14.33;;;8.70;;
6791;SDS011;3433;48.730;9.108;2023-04-06T21:53:15;13.30;;;8.07;;
6791;SDS011;3433;48.730;9.108;2023-04-06T21:55:42;11.30;;;8.33;;
6791;SDS011;3433;48.730;9.108;2023-04-06T21:58:09;11.10;;;8.40;;
6791;SDS011;3433;48.730;9.108;2023-04-06T22:00:36;10.47;;;7.67;;
6791;SDS011;3433;48.730;9.108;2023-04-06T22:03:03;13.50;;;7.93;;
6791;SDS011;3433;48.730;9.108;2023-04-06T22:05:30;10.43;;;7.77;;
6791;SDS011;3433;48.730;9.108;2023-04-06T22:08:17;11.30;;;8.40;;
6791;SDS011;3433;48.730;9.108;2023-04-06T22:10:44;13.30;;;8.50;;
6791;SDS011;3433;48.730;9.108;2023-04-06T22:13:11;11.50;;;8.03;;
6791;SDS011;3433;48.730;9.108;2023-04-06T22:15:39;11.97;;;8.60;;
6791;SDS011;3433;48.730;9.108;2023-04-06T22:18:05;11.97;;;8.50;;
6791;SDS011;3433;48.730;9.108;2023-04-06T22:20:32;14.33;;;8.93;;
6791;SDS011;3433;48.730;9.108;2023-04-06T22:22:59;12.53;;;8.10;;
6791;SDS011;3433;48.730;9.108;2023-04-06T22:25:28;14.50;;;8.80;;
6791;SDS011;3433;48.730;9.108;2023-04-06T22:27:54;11.10;;;8.30;;
6791;SDS011;3433;48.730;9.108;2023-04-06T22:30:21;11.93;;;7.87;;
6791;SDS011;3433;48.730;9.108;2023-04-06T22:32:48;9.50;;;7.57;;
6791;SDS011;3433;48.730;9.108;2023-04-06T22:35:15;13.13;;;8.17;;
6791;SDS011;3433;48.730;9.108;2023-04-06T22:37:42;11.10;;;7.10;;
6791;SDS011;3433;48.730;9.108;2023-04-06T22:40:10;18.50;;;8.83;;
6791;SDS011;3433;48.730;9.108;2023-04-06T22:42:38;9.30;;;7.63;;
6791;SDS011;3433;48.730;9.108;2023-04-06T22:45:06;10.07;;;7.27;;
6791;SDS011;3433;48.730;9.108;2023-04-06T22:47:33;11.43;;;7.57;;
6791;SDS011;3433;48.730;9.108;2023-04-06T22:50:00;10.27;;;7.87;;
6791;SDS011;3433;48.730;9.108;2023-04-06T22:52:27;11.40;;;7.57;;
6791;SDS011;3433;48.730;9.108;2023-04-06T22:54:54;11.80;;;7.47;;
6791;SDS011;3433;48.730;9.108;2023-04-06T22:57:21;11.43;;;7.30;;
6791;SDS011;3433;48.730;9.108;2023-04-06T22:59:49;10.10;;;7.20;;
6791;SDS011;3433;48.730;9.108;2023-04-06T23:02:16;10.00;;;7.60;;
6791;SDS011;3433;48.730;9.108;2023-04-06T23:04:43;8.40;;;7.00;;
6791;SDS011;3433;48.730;9.108;2023-04-06T23:07:11;13.53;;;7.40;;
6791;SDS011;3433;48.730;9.108;2023-04-06T23:09:39;10.60;;;7.53;;
6791;SDS011;3433;48.730;9.108;2023-04-06T23:12:06;10.27;;;7.67;;
6791;SDS011;3433;48.730;9.108;2023-04-06T23:14:33;9.57;;;6.93;;
6791;SDS011;3433;48.730;9.108;2023-04-06T23:17:02;10.60;;;7.07;;
6791;SDS011;3433;48.730;9.108;2023-04-06T23:19:28;10.87;;;7.30;;
6791;SDS011;3433;48.730;9.108;2023-04-06T23:21:55;12.20;;;7.60;;
6791;SDS011;3433;48.730;9.108;2023-04-06T23:24:22;9.73;;;7.20;;
6791;SDS011;3433;48.730;9.108;2023-04-06T23:26:49;11.77;;;7.60;;
6791;SDS011;3433;48.730;9.108;2023-04-06T23:29:16;11.23;;;7.30;;
6791;SDS011;3433;48.730;9.108;2023-04-06T23:31:43;10.40;;;7.37;;
6791;SDS011;3433;48.730;9.108;2023-04-06T23:34:11;9.93;;;7.40;;
6791;SDS011;3433;48.730;9.108;2023-04-06T23:36:38;13.43;;;7.23;;
6791;SDS011;3433;48.730;9.108;2023-04-06T23:39:05;11.40;;;8.03;;
6791;SDS011;3433;48.730;9.108;2023-04-06T23:41:32;10.93;;;6.70;;
6791;SDS011;3433;48.730;9.108;2023-04-06T23:43:59;13.23;;;6.87;;
6791;SDS011;3433;48.730;9.108;2023-04-06T23:46:26;13.07;;;7.70;;
6791;SDS011;3433;48.730;9.108;2023-04-06T23:48:53;10.30;;;6.97;;
6791;SDS011;3433;48.730;9.108;2023-04-06T23:51:21;9.60;;;7.57;;
6791;SDS011;3433;48.730;9.108;2023-04-06T23:53:48;13.87;;;7.57;;
6791;SDS011;3433;48.730;9.108;2023-04-06T23:56:15;9.27;;;7.13;;
6791;SDS011;3433;48.730;9.108;2023-04-06T23:58:42;10.43;;;7.63;;
